createdAt,value
2019-06-18T00:01:04.418Z,95.84
2019-06-18T00:02:16.064Z,95.79
2019-06-18T00:03:30.934Z,96.27
2019-06-18T00:04:43.575Z,96.56
2019-06-18T00:05:56.306Z,96.27
2019-06-18T00:07:08.245Z,96.08
2019-06-18T00:08:20.067Z,96.27
2019-06-18T00:09:31.554Z,96.37
2019-06-18T00:10:43.712Z,96.17
2019-06-18T00:11:56.306Z,95.89
2019-06-18T00:13:08.216Z,95.89
2019-06-18T00:14:20.690Z,96.27
2019-06-18T00:15:49.813Z,96.27
2019-06-18T00:17:04.196Z,96.46
2019-06-18T00:18:15.738Z,96.27
2019-06-18T00:19:28.309Z,96.84
2019-06-18T00:20:41.474Z,97.13
2019-06-18T00:21:53.895Z,96.56
2019-06-18T00:23:06.938Z,95.98
2019-06-18T00:24:20.590Z,97.03
2019-06-18T00:25:33.250Z,97.27
2019-06-18T00:26:45.740Z,97.27
2019-06-18T00:27:58.384Z,97.37
2019-06-18T00:29:10.958Z,97.94
2019-06-18T00:30:24.972Z,97.66
2019-06-18T00:31:36.875Z,97.27
2019-06-18T00:32:48.233Z,98.03
2019-06-18T00:34:00.862Z,98.47
2019-06-18T00:35:13.283Z,99.14
2019-06-18T00:36:24.545Z,99.95
2019-06-18T00:37:36.380Z,99.99
2019-06-18T00:38:48.209Z,99.18
2019-06-18T00:39:58.165Z,98.99
2019-06-18T00:41:11.975Z,99.28
2019-06-18T00:42:22.561Z,98.61
2019-06-18T00:43:39.510Z,99.18
2019-06-18T00:44:50.200Z,98.85
2019-06-18T00:46:08.075Z,98.8
2019-06-18T00:47:19.267Z,98.8
2019-06-18T00:48:30.904Z,99.28
2019-06-18T00:49:42.417Z,99.57
2019-06-18T00:50:54.355Z,99.14
2019-06-18T00:52:07.571Z,98.94
2019-06-18T00:53:20.252Z,98.8
2019-06-18T00:54:32.424Z,98.9
2019-06-18T00:55:47.319Z,99.04
2019-06-18T00:56:58.494Z,99.04
2019-06-18T00:58:10.889Z,99.23
2019-06-18T00:59:23.100Z,99.85
2019-06-18T01:00:36.924Z,99.23
2019-06-18T01:01:49.723Z,99.99
2019-06-18T01:03:02.031Z,99.28
2019-06-18T01:04:13.093Z,99.04
2019-06-18T01:05:26.827Z,99.76
2019-06-18T01:06:38.066Z,99.99
2019-06-18T01:07:50.441Z,99.76
2019-06-18T01:09:02.394Z,99.37
2019-06-18T01:10:16.816Z,99.95
2019-06-18T01:11:27.263Z,99.76
2019-06-18T01:12:40.341Z,99.57
2019-06-18T01:13:52.449Z,99.95
2019-06-18T01:15:06.910Z,99.66
2019-06-18T01:16:24.256Z,99.95
2019-06-18T01:17:37.156Z,99.08
2019-06-18T01:18:49.702Z,98.99
2019-06-18T01:20:02.302Z,98.8
2019-06-18T01:21:17.239Z,98.99
2019-06-18T01:22:30.417Z,99.66
2019-06-18T01:23:52.017Z,99.57
2019-06-18T01:25:12.360Z,99.85
2019-06-18T01:26:24.669Z,99.85
2019-06-18T01:27:35.823Z,99.37
2019-06-18T01:28:48.447Z,99.99
2019-06-18T01:30:03.190Z,99.18
2019-06-18T01:31:15.731Z,99.85
2019-06-18T01:32:27.768Z,99.95
2019-06-18T01:33:42.657Z,99.57
2019-06-18T01:34:56.372Z,99.99
2019-06-18T01:36:07.880Z,99.85
2019-06-18T01:37:22.674Z,99.99
2019-06-18T01:38:35.071Z,99.99
2019-06-18T01:39:46.253Z,99.99
2019-06-18T01:40:57.855Z,99.99
2019-06-18T01:42:12.440Z,99.99
2019-06-18T01:43:25.346Z,99.99
2019-06-18T01:44:36.257Z,99.99
2019-06-18T01:45:47.820Z,99.99
2019-06-18T01:47:02.467Z,99.99
2019-06-18T01:48:15.185Z,99.99
2019-06-18T01:49:27.572Z,99.99
2019-06-18T01:50:39.879Z,99.99
2019-06-18T01:51:52.475Z,99.99
2019-06-18T01:53:03.362Z,99.99
2019-06-18T01:54:16.380Z,99.99
2019-06-18T01:55:28.553Z,99.99
2019-06-18T01:56:43.916Z,99.99
2019-06-18T01:57:56.225Z,99.99
2019-06-18T01:59:08.116Z,99.99
2019-06-18T02:00:23.126Z,99.99
2019-06-18T02:01:36.129Z,99.99
2019-06-18T02:02:48.260Z,99.99
2019-06-18T02:04:03.265Z,99.99
2019-06-18T02:05:15.981Z,99.99
2019-06-18T02:06:28.314Z,99.99
2019-06-18T02:07:42.191Z,99.99
2019-06-18T02:08:54.921Z,99.99
2019-06-18T02:10:05.873Z,99.99
2019-06-18T02:11:18.691Z,99.99
2019-06-18T02:12:32.222Z,99.99
2019-06-18T02:13:44.896Z,99.99
2019-06-18T02:14:55.862Z,99.99
2019-06-18T02:16:08.107Z,99.99
2019-06-18T02:17:22.918Z,99.99
2019-06-18T02:18:36.043Z,99.99
2019-06-18T02:19:48.534Z,99.99
2019-06-18T02:21:00.451Z,99.99
2019-06-18T02:22:13.083Z,99.99
2019-06-18T02:23:25.518Z,99.99
2019-06-18T02:24:38.178Z,99.99
2019-06-18T02:25:49.233Z,99.99
2019-06-18T02:27:02.984Z,99.99
2019-06-18T02:28:15.887Z,99.99
2019-06-18T02:29:28.028Z,99.9
2019-06-18T02:30:40.100Z,99.04
2019-06-18T02:31:56.199Z,99.99
2019-06-18T02:33:14.104Z,99.23
2019-06-18T02:34:26.913Z,99.14
2019-06-18T02:35:38.413Z,98.57
2019-06-18T02:36:53.086Z,98.37
2019-06-18T02:38:05.710Z,98.47
2019-06-18T02:39:18.280Z,98.47
2019-06-18T02:40:32.102Z,98.47
2019-06-18T02:41:45.012Z,98.57
2019-06-18T02:42:56.066Z,98.28
2019-06-18T02:44:08.728Z,98.75
2019-06-18T02:45:24.004Z,99.43
2019-06-18T02:46:36.652Z,99.14
2019-06-18T02:47:47.977Z,98.47
2019-06-18T02:49:02.605Z,99.04
2019-06-18T02:50:13.513Z,98.57
2019-06-18T02:51:25.560Z,99.23
2019-06-18T02:52:37.926Z,98.47
2019-06-18T02:53:48.766Z,98.37
2019-06-18T02:55:02.644Z,99.04
2019-06-18T02:56:13.114Z,99.43
2019-06-18T02:57:25.531Z,98.57
2019-06-18T02:58:37.630Z,98.47
2019-06-18T02:59:49.744Z,98.66
2019-06-18T03:01:02.366Z,98.47
2019-06-18T03:02:15.824Z,98.37
2019-06-18T03:03:28.522Z,98.47
2019-06-18T03:04:40.211Z,99.14
2019-06-18T03:05:52.946Z,99.04
2019-06-18T03:07:05.744Z,98.28
2019-06-18T03:08:18.567Z,98.28
2019-06-18T03:09:32.625Z,98.94
2019-06-18T03:10:43.544Z,97.52
2019-06-18T03:11:56.029Z,97.23
2019-06-18T03:13:08.159Z,97.42
2019-06-18T03:14:22.927Z,98.28
2019-06-18T03:15:36.509Z,97.89
2019-06-18T03:16:48.231Z,97.52
2019-06-18T03:18:02.406Z,97.23
2019-06-18T03:19:15.406Z,97.71
2019-06-18T03:20:26.026Z,98.08
2019-06-18T03:21:38.932Z,97.61
2019-06-18T03:22:52.537Z,96.75
2019-06-18T03:24:05.021Z,97.42
2019-06-18T03:25:16.237Z,96.75
2019-06-18T03:26:28.525Z,97.47
2019-06-18T03:27:42.263Z,96.8
2019-06-18T03:28:55.714Z,96.22
2019-06-18T03:30:07.806Z,96.13
2019-06-18T03:31:23.948Z,96.8
2019-06-18T03:32:38.043Z,96.03
2019-06-18T03:33:54.809Z,96.13
2019-06-18T03:35:08.844Z,96.7
2019-06-18T03:36:22.680Z,96.32
2019-06-18T03:37:36.110Z,96.22
2019-06-18T03:38:47.671Z,96.13
2019-06-18T03:40:02.211Z,95.75
2019-06-18T03:41:15.754Z,96.42
2019-06-18T03:42:27.428Z,96.61
2019-06-18T03:43:38.569Z,96.13
2019-06-18T03:44:49.959Z,95.84
2019-06-18T03:46:03.662Z,96.03
2019-06-18T03:47:15.227Z,95.84
2019-06-18T03:48:26.004Z,96.42
2019-06-18T03:49:37.503Z,96.03
2019-06-18T03:50:48.131Z,97.18
2019-06-18T03:52:03.170Z,96.13
2019-06-18T03:53:16.219Z,96.13
2019-06-18T03:54:28.542Z,96.22
2019-06-18T03:55:42.626Z,96.13
2019-06-18T03:56:55.615Z,96.42
2019-06-18T03:58:08.609Z,96.22
2019-06-18T03:59:22.286Z,94.22
2019-06-18T04:00:33.589Z,96.42
2019-06-18T04:01:46.800Z,96.32
2019-06-18T04:02:58.385Z,95.94
2019-06-18T04:04:12.981Z,95.94
2019-06-18T04:05:25.451Z,95.75
2019-06-18T04:06:38.361Z,94.7
2019-06-18T04:07:48.964Z,95.03
2019-06-18T04:09:02.204Z,95.07
2019-06-18T04:10:14.990Z,95.75
2019-06-18T04:11:25.916Z,95.7
2019-06-18T04:12:37.869Z,95.89
2019-06-18T04:13:48.417Z,95.07
2019-06-18T04:15:03.108Z,96.32
2019-06-18T04:16:16.464Z,96.8
2019-06-18T04:17:27.651Z,96.13
2019-06-18T04:18:42.134Z,96.51
2019-06-18T04:19:52.493Z,94.51
2019-06-18T04:21:05.023Z,94.98
2019-06-18T04:22:16.024Z,94.98
2019-06-18T04:23:28.363Z,94.7
2019-06-18T04:24:42.673Z,95.17
2019-06-18T04:25:53.257Z,95.94
2019-06-18T04:27:06.149Z,94.79
2019-06-18T04:28:17.571Z,94.6
2019-06-18T04:29:33.249Z,95.07
2019-06-18T04:30:46.369Z,94.6
2019-06-18T04:31:58.694Z,94.7
2019-06-18T04:33:13.106Z,94.89
2019-06-18T04:34:25.869Z,94.7
2019-06-18T04:35:38.156Z,95.75
2019-06-18T04:36:49.807Z,96.03
2019-06-18T04:38:02.645Z,96.13
2019-06-18T04:39:15.609Z,96.03
2019-06-18T04:40:27.938Z,96.61
2019-06-18T04:41:39.963Z,96.32
2019-06-18T04:42:52.255Z,95.65
2019-06-18T04:44:03.780Z,96.8
2019-06-18T04:45:16.054Z,96.61
2019-06-18T04:46:28.829Z,96.22
2019-06-18T04:47:43.165Z,96.22
2019-06-18T04:48:55.727Z,95.75
2019-06-18T04:50:08.888Z,95.07
2019-06-18T04:51:22.893Z,95.41
2019-06-18T04:52:35.432Z,94.41
2019-06-18T04:53:48.247Z,94.17
2019-06-18T04:55:03.127Z,94.17
2019-06-18T04:56:16.262Z,93.69
2019-06-18T04:57:27.713Z,93.98
2019-06-18T04:58:38.461Z,93.79
2019-06-18T04:59:53.106Z,93.4
2019-06-18T05:01:05.819Z,92.64
2019-06-18T05:02:18.554Z,93.6
2019-06-18T05:03:33.032Z,92.74
2019-06-18T05:04:46.052Z,91.73
2019-06-18T05:05:57.545Z,90.73
2019-06-18T05:07:09.580Z,90.82
2019-06-18T05:08:22.649Z,90.96
2019-06-18T05:09:35.046Z,91.35
2019-06-18T05:10:45.942Z,91.83
2019-06-18T05:11:58.495Z,91.92
2019-06-18T05:13:13.672Z,91.53
2019-06-18T05:14:25.635Z,90.1
2019-06-18T05:15:38.690Z,90.39
2019-06-18T05:16:53.152Z,90.2
2019-06-18T05:18:05.864Z,90.1
2019-06-18T05:19:18.084Z,90.24
2019-06-18T05:20:32.779Z,90.58
2019-06-18T05:21:45.371Z,89.48
2019-06-18T05:22:56.230Z,88.04
2019-06-18T05:24:07.835Z,87.95
2019-06-18T05:25:22.682Z,88.13
2019-06-18T05:26:35.087Z,89
2019-06-18T05:27:49.394Z,88.43
2019-06-18T05:29:02.734Z,88.81
2019-06-18T05:30:15.442Z,87.95
2019-06-18T05:31:27.764Z,88.9
2019-06-18T05:32:39.112Z,88.33
2019-06-18T05:33:52.822Z,87.76
2019-06-18T05:35:06.413Z,87.85
2019-06-18T05:36:17.857Z,86.7
2019-06-18T05:37:28.761Z,87.85
2019-06-18T05:38:42.895Z,86.99
2019-06-18T05:39:55.958Z,87.76
2019-06-18T05:41:08.945Z,87.27
2019-06-18T05:42:23.110Z,87.47
2019-06-18T05:43:36.168Z,87.27
2019-06-18T05:44:48.363Z,88.23
2019-06-18T05:46:03.293Z,86.17
2019-06-18T05:47:15.654Z,86.36
2019-06-18T05:48:28.749Z,87.03
2019-06-18T05:50:03.531Z,87.51
2019-06-18T05:51:15.724Z,85.79
2019-06-18T05:52:38.688Z,86.36
2019-06-18T05:53:52.410Z,86.65
2019-06-18T05:55:06.681Z,86.17
2019-06-18T05:56:17.748Z,86.65
2019-06-18T05:57:28.816Z,86.65
2019-06-18T05:58:42.657Z,87.13
2019-06-18T05:59:55.581Z,86.74
2019-06-18T06:01:08.756Z,85.21
2019-06-18T06:02:22.548Z,86.65
2019-06-18T06:03:35.414Z,86.27
2019-06-18T06:04:47.721Z,85.12
2019-06-18T06:05:58.576Z,86.46
2019-06-18T06:07:10.875Z,86.55
2019-06-18T06:08:25.682Z,85.98
2019-06-18T06:09:38.240Z,85.88
2019-06-18T06:10:52.810Z,87.41
2019-06-18T06:12:05.616Z,85.5
2019-06-18T06:13:16.190Z,85.21
2019-06-18T06:14:28.378Z,85.41
2019-06-18T06:15:42.958Z,85.45
2019-06-18T06:16:57.126Z,84.3
2019-06-18T06:18:08.194Z,84.88
2019-06-18T06:19:22.382Z,83.53
2019-06-18T06:20:35.385Z,84.11
2019-06-18T06:21:48.454Z,83.87
2019-06-18T06:23:03.234Z,82.86
2019-06-18T06:24:16.427Z,82.73
2019-06-18T06:25:27.912Z,82.67
2019-06-18T06:26:43.099Z,83.3
2019-06-18T06:27:56.136Z,83.49
2019-06-18T06:29:08.318Z,84.45
2019-06-18T06:30:22.856Z,83.59
2019-06-18T06:31:34.879Z,82.48
2019-06-18T06:32:46.295Z,84.49
2019-06-18T06:33:58.488Z,84.88
2019-06-18T06:35:13.609Z,84.39
2019-06-18T06:36:25.694Z,85.74
2019-06-18T06:37:36.483Z,85.64
2019-06-18T06:38:48.327Z,84.88
2019-06-18T06:40:04.038Z,84.49
2019-06-18T06:41:16.154Z,83.82
2019-06-18T06:42:27.879Z,85.64
2019-06-18T06:43:39.815Z,83.34
2019-06-18T06:44:52.729Z,83.15
2019-06-18T06:46:03.815Z,83.15
2019-06-18T06:47:17.816Z,86.35
2019-06-18T06:48:32.772Z,84.63
2019-06-18T06:49:45.609Z,83.38
2019-06-18T06:50:58.389Z,82.32
2019-06-18T06:52:12.759Z,82.23
2019-06-18T06:53:25.797Z,79.83
2019-06-18T06:54:38.311Z,80.99
2019-06-18T06:55:53.027Z,82.04
2019-06-18T06:57:05.819Z,80.93
2019-06-18T06:58:33.204Z,82.46
2019-06-18T06:59:46.209Z,81.98
2019-06-18T07:00:58.703Z,82.08
2019-06-18T07:02:13.695Z,82.46
2019-06-18T07:03:26.462Z,82.81
2019-06-18T07:04:38.457Z,81.89
2019-06-18T07:05:52.674Z,82.08
2019-06-18T07:07:05.327Z,82.42
2019-06-18T07:08:16.124Z,81.37
2019-06-18T07:09:27.605Z,80.93
2019-06-18T07:10:43.350Z,80.83
2019-06-18T07:11:56.525Z,80.64
2019-06-18T07:13:07.748Z,80.93
2019-06-18T07:14:18.137Z,79.78
2019-06-18T07:15:29.158Z,79.59
2019-06-18T07:16:44.001Z,80.45
2019-06-18T07:17:55.955Z,79.78
2019-06-18T07:19:08.514Z,79.97
2019-06-18T07:20:20.059Z,78.15
2019-06-18T07:21:32.874Z,77.67
2019-06-18T07:22:46.694Z,78.82
2019-06-18T07:23:58.117Z,79.59
2019-06-18T07:25:12.326Z,79.3
2019-06-18T07:26:23.715Z,78.92
2019-06-18T07:27:36.684Z,78.63
2019-06-18T07:28:47.825Z,79.3
2019-06-18T07:30:04.057Z,79.59
2019-06-18T07:31:16.167Z,79.78
2019-06-18T07:32:28.461Z,79.82
2019-06-18T07:33:42.301Z,80.35
2019-06-18T07:34:56.306Z,80.58
2019-06-18T07:36:07.979Z,80.97
2019-06-18T07:37:20.088Z,79.91
2019-06-18T07:38:32.669Z,79.34
2019-06-18T07:39:45.486Z,79.72
2019-06-18T07:40:57.921Z,80.49
2019-06-18T07:42:13.355Z,79.34
2019-06-18T07:43:26.005Z,79.72
2019-06-18T07:44:38.143Z,79.44
2019-06-18T07:45:53.063Z,80.16
2019-06-18T07:47:06.610Z,80.4
2019-06-18T07:48:18.077Z,81.41
2019-06-18T07:49:32.920Z,81.6
2019-06-18T07:50:46.811Z,82.18
2019-06-18T07:51:58.286Z,81.89
2019-06-18T07:53:13.055Z,81.6
2019-06-18T07:54:25.456Z,81.89
2019-06-18T07:55:36.714Z,81.51
2019-06-18T07:56:48.670Z,80.87
2019-06-18T07:58:02.460Z,80.97
2019-06-18T07:59:15.688Z,81.54
2019-06-18T08:00:27.962Z,81.54
2019-06-18T08:01:43.251Z,80.97
2019-06-18T08:02:55.522Z,80.87
2019-06-18T08:04:08.613Z,81.07
2019-06-18T08:05:22.308Z,80.58
2019-06-18T08:06:32.893Z,80.3
2019-06-18T08:07:45.622Z,79.91
2019-06-18T08:08:58.096Z,79.72
2019-06-18T08:10:13.167Z,79.72
2019-06-18T08:11:25.310Z,78.99
2019-06-18T08:12:36.555Z,79.19
2019-06-18T08:13:48.593Z,78.8
2019-06-18T08:15:04.059Z,79.09
2019-06-18T08:16:16.078Z,77.56
2019-06-18T08:17:28.475Z,78.32
2019-06-18T08:18:42.245Z,78.8
2019-06-18T08:19:54.099Z,77.56
2019-06-18T08:21:06.875Z,76.5
2019-06-18T08:22:23.088Z,76.98
2019-06-18T08:23:35.399Z,78.32
2019-06-18T08:24:46.617Z,72.89
2019-06-18T08:25:58.332Z,70.87
2019-06-18T08:27:12.345Z,71.93
2019-06-18T08:28:24.879Z,69.62
2019-06-18T08:29:35.903Z,70.39
2019-06-18T08:30:47.778Z,70.01
2019-06-18T08:32:05.828Z,69.66
2019-06-18T08:33:19.318Z,67.93
2019-06-18T08:34:32.590Z,68.41
2019-06-18T08:35:45.676Z,66.61
2019-06-18T08:36:56.404Z,68.63
2019-06-18T08:38:08.717Z,66.91
2019-06-18T08:39:22.632Z,66.81
2019-06-18T08:40:32.960Z,67.32
2019-06-18T08:41:45.812Z,65.59
2019-06-18T08:42:57.414Z,65.4
2019-06-18T08:44:08.925Z,64.82
2019-06-18T08:45:22.500Z,65.59
2019-06-18T08:46:35.225Z,65.3
2019-06-18T08:47:46.338Z,65.84
2019-06-18T08:48:58.801Z,64.98
2019-06-18T08:50:12.951Z,67.19
2019-06-18T08:51:25.437Z,66.91
2019-06-18T08:52:36.206Z,66.91
2019-06-18T08:53:48.335Z,66.04
2019-06-18T08:55:02.563Z,68.7
2019-06-18T08:56:16.389Z,67.93
2019-06-18T08:57:28.784Z,69.85
2019-06-18T08:58:40.097Z,68.98
2019-06-18T08:59:52.527Z,67.16
2019-06-18T09:01:03.552Z,69.46
2019-06-18T09:02:15.948Z,70.43
2019-06-18T09:03:32.445Z,69.18
2019-06-18T09:04:44.875Z,68.7
2019-06-18T09:05:56.273Z,70.33
2019-06-18T09:07:08.954Z,68.6
2019-06-18T09:08:22.710Z,68.51
2019-06-18T09:09:34.600Z,68.7
2019-06-18T09:10:45.204Z,70.14
2019-06-18T09:11:56.607Z,69.85
2019-06-18T09:13:08.734Z,68.51
2019-06-18T09:14:23.512Z,68.89
2019-06-18T09:15:35.996Z,69.56
2019-06-18T09:16:48.318Z,69.95
2019-06-18T09:18:00.354Z,69.91
2019-06-18T09:19:13.067Z,70.49
2019-06-18T09:20:25.917Z,70.01
2019-06-18T09:21:36.688Z,70.87
2019-06-18T09:22:48.509Z,70.49
2019-06-18T09:24:03.398Z,71.64
2019-06-18T09:25:16.475Z,72.12
2019-06-18T09:26:27.999Z,71.83
2019-06-18T09:27:40.382Z,71.93
2019-06-18T09:28:53.391Z,72.22
2019-06-18T09:30:06.157Z,73.08
2019-06-18T09:31:17.838Z,72.75
2019-06-18T09:32:28.584Z,72.56
2019-06-18T09:33:42.910Z,73.72
2019-06-18T09:34:55.786Z,73.81
2019-06-18T09:36:08.444Z,75.06
2019-06-18T09:37:22.447Z,73.24
2019-06-18T09:38:35.743Z,73.62
2019-06-18T09:39:49.134Z,74.77
2019-06-18T09:41:02.444Z,76.12
2019-06-18T09:42:15.658Z,74.29
2019-06-18T09:43:27.592Z,75.92
2019-06-18T09:44:38.143Z,75.98
2019-06-18T09:45:49.935Z,77.23
2019-06-18T09:47:03.052Z,75.98
2019-06-18T09:48:15.856Z,75.6
2019-06-18T09:49:28.653Z,75.89
2019-06-18T09:50:42.859Z,75.79
2019-06-18T09:51:55.645Z,76.07
2019-06-18T09:53:07.717Z,77.51
2019-06-18T09:54:25.683Z,77.26
2019-06-18T09:55:37.883Z,76.59
2019-06-18T09:56:52.765Z,77.26
2019-06-18T09:58:06.084Z,77.17
2019-06-18T09:59:17.839Z,76.5
2019-06-18T10:00:29.824Z,75.63
2019-06-18T10:01:43.034Z,75.73
2019-06-18T10:02:56.608Z,76.88
2019-06-18T10:04:08.166Z,76.37
2019-06-18T10:05:22.644Z,76.94
2019-06-18T10:06:35.148Z,77.42
2019-06-18T10:07:46.405Z,77.61
2019-06-18T10:08:57.614Z,78.19
2019-06-18T10:10:08.561Z,78.57
2019-06-18T10:11:18.256Z,78.19
2019-06-18T10:12:28.248Z,78
2019-06-18T10:13:42.543Z,78.67
2019-06-18T10:14:53.455Z,78.38
2019-06-18T10:16:06.688Z,78.96
2019-06-18T10:17:18.628Z,78.7
2019-06-18T10:18:33.298Z,78.23
2019-06-18T10:19:45.954Z,79.28
2019-06-18T10:20:57.951Z,80.05
2019-06-18T10:22:11.501Z,80.58
2019-06-18T10:23:23.896Z,80.68
2019-06-18T10:24:35.654Z,81.16
2019-06-18T10:25:47.600Z,83.52
2019-06-18T10:27:02.608Z,84.15
2019-06-18T10:28:15.401Z,85.68
2019-06-18T10:29:57.569Z,86.16
2019-06-18T10:31:17.038Z,88.13
2019-06-18T10:32:28.652Z,87.27
2019-06-18T10:33:38.601Z,86.98
2019-06-18T10:34:52.996Z,87.41
2019-06-18T10:36:05.380Z,88.28
2019-06-18T10:37:15.330Z,89.09
2019-06-18T10:38:25.287Z,89.09
2019-06-18T10:39:38.175Z,89.38
2019-06-18T10:40:52.681Z,90.24
2019-06-18T10:42:03.809Z,90.24
2019-06-18T10:43:16.004Z,91.39
2019-06-18T10:44:28.415Z,90.39
2019-06-18T10:45:42.589Z,90.48
2019-06-18T10:46:56.602Z,90.96
2019-06-18T10:48:08.156Z,91.01
2019-06-18T10:49:22.617Z,91.73
2019-06-18T10:50:35.357Z,91.63
2019-06-18T10:52:00.825Z,92.4
2019-06-18T10:53:12.771Z,91.83
2019-06-18T10:54:25.793Z,91.97
2019-06-18T10:55:38.030Z,90.96
2019-06-18T10:56:53.336Z,91.49
2019-06-18T10:58:05.982Z,91.87
2019-06-18T10:59:17.932Z,92.92
2019-06-18T11:00:32.567Z,91.87
2019-06-18T11:01:43.379Z,90.24
2019-06-18T11:02:55.740Z,91.2
2019-06-18T11:04:07.679Z,91.3
2019-06-18T11:05:20.437Z,90.58
2019-06-18T11:06:33.166Z,88.76
2019-06-18T11:08:03.166Z,88.95
2019-06-18T11:09:18.566Z,88.18
2019-06-18T11:10:30.855Z,87.03
2019-06-18T11:11:40.800Z,87.23
2019-06-18T11:12:50.753Z,87.32
2019-06-18T11:14:15.944Z,87.13
2019-06-18T11:15:28.385Z,86.17
2019-06-18T11:16:42.698Z,85.69
2019-06-18T11:17:53.466Z,85.5
2019-06-18T11:19:05.880Z,87.61
2019-06-18T11:20:18.275Z,90.09
2019-06-18T11:21:33.380Z,89.58
2019-06-18T11:22:46.263Z,88.18
2019-06-18T11:23:59.412Z,91.34
2019-06-18T11:25:12.978Z,92.01
2019-06-18T11:26:26.609Z,92.87
2019-06-18T11:27:38.907Z,93.83
2019-06-18T11:28:50.187Z,93.74
2019-06-18T11:30:04.213Z,93.26
2019-06-18T11:31:16.362Z,93.35
2019-06-18T11:32:29.102Z,92.21
2019-06-18T11:33:39.105Z,92.87
2019-06-18T11:34:49.069Z,92.11
2019-06-18T11:35:58.873Z,92.15
2019-06-18T11:37:11.488Z,91.44
2019-06-18T11:38:22.590Z,90.91
2019-06-18T11:39:35.412Z,91.49
2019-06-18T11:40:46.387Z,91.19
2019-06-18T11:41:58.504Z,91.34
2019-06-18T11:43:13.381Z,91.96
2019-06-18T11:44:25.767Z,91.77
2019-06-18T11:45:35.725Z,91.29
2019-06-18T11:46:48.124Z,91.49
2019-06-18T11:48:02.725Z,91.67
2019-06-18T11:49:17.788Z,91.58
2019-06-18T11:50:28.679Z,91.96
2019-06-18T11:51:38.724Z,91.39
2019-06-18T11:52:52.794Z,92.2
2019-06-18T11:54:05.897Z,92.2
2019-06-18T11:55:18.013Z,91.57
2019-06-18T11:56:32.727Z,90.61
2019-06-18T11:57:45.039Z,90.08
2019-06-18T11:58:56.153Z,89.41
2019-06-18T12:00:08.050Z,86.96
2019-06-18T12:01:22.928Z,86.48
2019-06-18T12:02:33.388Z,86.52
2019-06-18T12:03:45.706Z,86.72
2019-06-18T12:04:57.967Z,84.55
2019-06-18T12:06:12.634Z,83.69
2019-06-18T12:07:22.542Z,83.11
2019-06-18T12:08:32.557Z,82.09
2019-06-18T12:09:42.259Z,81.61
2019-06-18T12:11:04.922Z,79.82
2019-06-18T12:12:16.491Z,79.19
2019-06-18T12:13:28.925Z,76.44
2019-06-18T12:14:42.802Z,74.93
2019-06-18T12:15:53.157Z,75.8
2019-06-18T12:17:06.594Z,76.13
2019-06-18T12:18:18.645Z,75.97
2019-06-18T12:19:29.982Z,74.57
2019-06-18T12:20:43.188Z,74.27
2019-06-18T12:21:56.298Z,73.93
2019-06-18T12:23:08.916Z,72.8
2019-06-18T12:24:23.615Z,72.06
2019-06-18T12:25:35.973Z,71.14
2019-06-18T12:26:48.146Z,70.1
2019-06-18T12:28:03.360Z,70.68
2019-06-18T12:29:16.564Z,70.2
2019-06-18T12:30:28.556Z,69.04
2019-06-18T12:31:38.532Z,68.21
2019-06-18T12:32:56.612Z,68.3
2019-06-18T12:34:08.577Z,68.17
2019-06-18T12:35:27.047Z,67.4
2019-06-18T12:36:38.080Z,66.17
2019-06-18T12:37:53.546Z,66.66
2019-06-18T12:39:06.473Z,66.47
2019-06-18T12:40:18.784Z,65.79
2019-06-18T12:41:33.061Z,65.3
2019-06-18T12:42:45.388Z,66.27
2019-06-18T12:43:56.274Z,66.17
2019-06-18T12:45:08.059Z,65.3
2019-06-18T12:46:22.854Z,65.88
2019-06-18T12:47:35.897Z,65.88
2019-06-18T12:48:48.292Z,65.59
2019-06-18T12:50:00.174Z,65.05
2019-06-18T12:51:13.698Z,64.3
2019-06-18T12:52:25.754Z,64.43
2019-06-18T12:53:37.862Z,63.2
2019-06-18T12:55:16.130Z,60.91
2019-06-18T12:56:28.683Z,59.12
2019-06-18T12:57:43.056Z,58.69
2019-06-18T12:58:55.799Z,57.78
2019-06-18T13:00:36.166Z,56.9
2019-06-18T13:01:47.536Z,57.1
2019-06-18T13:02:58.359Z,57.2
2019-06-18T13:04:13.042Z,56.61
2019-06-18T13:05:25.351Z,56.81
2019-06-18T13:06:36.323Z,56.87
2019-06-18T13:07:48.465Z,56.87
2019-06-18T13:09:03.282Z,57.23
2019-06-18T13:10:16.202Z,58.28
2019-06-18T13:11:28.380Z,57.01
2019-06-18T13:12:43.391Z,58.15
2019-06-18T13:13:55.843Z,56.79
2019-06-18T13:15:13.262Z,57.18
2019-06-18T13:16:28.308Z,57.18
2019-06-18T13:17:43.456Z,57.18
2019-06-18T13:18:56.273Z,57.37
2019-06-18T13:20:08.683Z,57.37
2019-06-18T13:21:23.455Z,57.18
2019-06-18T13:22:35.160Z,56.98
2019-06-18T13:23:47.833Z,57.47
2019-06-18T13:25:04.528Z,57.86
2019-06-18T13:26:15.594Z,56.76
2019-06-18T13:27:27.994Z,58.03
2019-06-18T13:28:38.823Z,57.7
2019-06-18T13:29:50.764Z,58.65
2019-06-18T13:31:08.029Z,59.2
2019-06-18T13:32:22.751Z,60.07
2019-06-18T13:33:32.922Z,59.75
2019-06-18T13:34:46.103Z,60.82
2019-06-18T13:35:58.149Z,60.69
2019-06-18T13:37:12.691Z,61.36
2019-06-18T13:38:23.665Z,60.57
2019-06-18T13:39:36.451Z,60.92
2019-06-18T13:40:48.172Z,61.3
2019-06-18T13:42:03.889Z,61.89
2019-06-18T13:43:16.199Z,62.73
2019-06-18T13:44:27.954Z,62.7
2019-06-18T13:45:42.880Z,63.56
2019-06-18T13:46:54.875Z,63.24
2019-06-18T13:48:06.483Z,64.4
2019-06-18T13:49:22.912Z,65.17
2019-06-18T13:50:35.127Z,65.72
2019-06-18T13:51:47.962Z,66.4
2019-06-18T13:52:59.641Z,67.36
2019-06-18T13:54:18.025Z,67.14
2019-06-18T13:55:33.057Z,67.23
2019-06-18T13:56:46.150Z,67.78
2019-06-18T13:57:58.261Z,68.01
2019-06-18T13:59:13.216Z,67.91
2019-06-18T14:00:26.005Z,67.52
2019-06-18T14:01:35.962Z,66.62
2019-06-18T14:02:45.923Z,65.98
2019-06-18T14:03:58.153Z,67.1
2019-06-18T14:05:11.214Z,67.1
2019-06-18T14:06:23.582Z,67.68
2019-06-18T14:07:38.255Z,67.78
2019-06-18T14:08:53.344Z,68.52
2019-06-18T14:10:06.188Z,68.42
2019-06-18T14:11:18.620Z,69.67
2019-06-18T14:12:32.994Z,69.87
2019-06-18T14:13:45.628Z,70.44
2019-06-18T14:14:55.211Z,70.44
2019-06-18T14:16:07.930Z,70.35
2019-06-18T14:17:18.971Z,71.5
2019-06-18T14:18:33.351Z,71.41
2019-06-18T14:19:45.418Z,70.5
2019-06-18T14:20:56.801Z,70.41
2019-06-18T14:22:06.680Z,71.18
2019-06-18T14:23:19.022Z,70.5
2019-06-18T14:24:33.278Z,71.85
2019-06-18T14:26:00.855Z,70.98
2019-06-18T14:27:11.307Z,71.47
2019-06-18T14:28:22.538Z,71.37
2019-06-18T14:29:35.278Z,71.18
2019-06-18T14:30:47.559Z,70.89
2019-06-18T14:31:58.867Z,70.7
2019-06-18T14:35:08.571Z,71.31
2019-06-18T14:36:26.416Z,71.02
2019-06-18T14:37:42.859Z,70.83
2019-06-18T14:38:56.414Z,70.92
2019-06-18T14:40:08.969Z,71.02
2019-06-18T14:41:24.910Z,71.31
2019-06-18T14:42:39.737Z,70.57
2019-06-18T14:43:49.710Z,71.25
2019-06-18T14:44:59.415Z,70.67
2019-06-18T14:46:09.104Z,70.57
2019-06-18T14:47:21.476Z,70.09
2019-06-18T14:48:31.433Z,69.8
2019-06-18T14:49:41.380Z,69.32
2019-06-18T14:50:53.073Z,69.32
2019-06-18T14:52:05.495Z,69.13
2019-06-18T14:53:17.884Z,69.42
2019-06-18T14:54:35.823Z,68.55
2019-06-18T14:55:48.461Z,68.74
2019-06-18T14:57:02.350Z,68.35
2019-06-18T14:58:12.932Z,69.42
2019-06-18T14:59:25.319Z,70.48
2019-06-18T15:00:38.112Z,70.38
2019-06-18T15:01:52.824Z,69.67
2019-06-18T15:03:06.617Z,70.54
2019-06-18T15:04:18.720Z,70.15
2019-06-18T15:05:32.606Z,70.31
2019-06-18T15:06:45.435Z,71.18
2019-06-18T15:07:56.215Z,72.05
2019-06-18T15:09:08.218Z,71.14
2019-06-18T15:10:23.916Z,71.66
2019-06-18T15:11:38.820Z,71.95
2019-06-18T15:12:53.317Z,72.11
2019-06-18T15:14:03.403Z,71.62
2019-06-18T15:15:15.632Z,73.07
2019-06-18T15:16:28.776Z,72.11
2019-06-18T15:17:42.738Z,72.2
2019-06-18T15:18:52.872Z,72.68
2019-06-18T15:20:05.834Z,72.49
2019-06-18T15:21:18.022Z,72.49
2019-06-18T15:22:34.867Z,72.88
2019-06-18T15:23:45.954Z,73.16
2019-06-18T15:24:58.473Z,72.88
2019-06-18T15:26:13.012Z,72.78
2019-06-18T15:27:25.432Z,73.46
2019-06-18T15:28:37.768Z,72.2
2019-06-18T15:29:52.544Z,72.68
2019-06-18T15:31:05.446Z,72.49
2019-06-18T15:32:16.345Z,72.59
2019-06-18T15:33:29.064Z,72.72
2019-06-18T15:34:42.772Z,72.53
2019-06-18T15:35:55.195Z,72.14
2019-06-18T15:37:06.918Z,72.49
2019-06-18T15:38:18.758Z,72.59
2019-06-18T15:39:32.664Z,72.88
2019-06-18T15:40:43.233Z,73.58
2019-06-18T15:41:53.406Z,73.94
2019-06-18T15:43:06.655Z,73.26
2019-06-18T15:44:18.195Z,72.59
2019-06-18T15:45:30.752Z,73.46
2019-06-18T15:46:43.174Z,73.46